Time;durP1;ratioP1;P1;durP2;ratioP2;P2;SDS_P1;SDS_P2;PMS_P1;PMS_P2;Temp;Humidity;BMP_temperature;BMP_pressure;BME280_temperature;BME280_humidity;BME280_pressure;Samples;Min_cycle;Max_cycle;Signal;HPM_P1;HPM_P2
2022/05/26 00:01:32;;;;;;;;;3.80;3.80;28.60;99.90;;;;;;5012889;28;9263;-62
2022/05/26 00:04:03;;;;;;;;;4.80;4.80;28.60;99.90;;;;;;5017368;28;8838;-62
2022/05/26 00:06:34;;;;;;;;;5.00;5.00;28.80;99.90;;;;;;5013943;28;8856;-63
2022/05/26 00:09:05;;;;;;;;;2.40;2.40;28.70;99.90;;;;;;5011754;28;8837;-60
2022/05/26 00:11:38;;;;;;;;;3.00;3.00;28.70;99.90;;;;;;5025002;28;8855;-61
2022/05/26 00:14:10;;;;;;;;;4.80;4.80;28.80;99.90;;;;;;5014430;28;8899;-60
2022/05/26 00:16:46;;;;;;;;;5.20;4.20;28.70;99.90;;;;;;5009981;28;9008;-61
2022/05/26 00:19:19;;;;;;;;;3.20;3.20;28.60;99.90;;;;;;5021645;28;8848;-63
2022/05/26 00:21:49;;;;;;;;;5.00;5.00;28.70;99.90;;;;;;5017787;28;8826;-61
2022/05/26 00:24:21;;;;;;;;;6.20;4.80;28.80;99.90;;;;;;5019571;28;8872;-62
2022/05/26 00:26:51;;;;;;;;;4.80;4.00;28.80;99.90;;;;;;5016998;28;8854;-61
2022/05/26 00:29:22;;;;;;;;;3.00;3.00;28.80;99.90;;;;;;5018699;28;8888;-62
2022/05/26 00:31:51;;;;;;;;;4.20;3.60;28.90;99.90;;;;;;5018471;28;8871;-62
2022/05/26 00:34:25;;;;;;;;;2.80;2.80;28.80;99.90;;;;;;5013738;28;8877;-63
2022/05/26 00:36:56;;;;;;;;;4.00;4.00;28.90;99.90;;;;;;5019105;28;8837;-62
2022/05/26 00:39:27;;;;;;;;;4.60;4.60;28.80;99.90;;;;;;5015858;28;8861;-60
2022/05/26 00:42:03;;;;;;;;;4.00;4.00;28.80;99.90;;;;;;5018577;28;8888;-62
2022/05/26 00:44:34;;;;;;;;;4.00;4.00;28.80;99.90;;;;;;5014982;28;8884;-61
2022/05/26 00:47:11;;;;;;;;;3.20;3.20;28.70;99.90;;;;;;5021500;28;8829;-60
2022/05/26 00:49:44;;;;;;;;;3.20;3.20;28.70;99.90;;;;;;5018908;28;8861;-63
2022/05/26 00:52:58;;;;;;;;;3.00;3.00;28.70;99.90;;;;;;5015558;28;8865;-62
2022/05/26 00:55:40;;;;;;;;;4.40;4.40;28.60;99.90;;;;;;5014761;28;8849;-60
2022/05/26 00:58:23;;;;;;;;;64.50;52.50;28.40;99.90;;;;;;5016241;28;8996;-61
2022/05/26 01:01:02;;;;;;;;;70.00;59.75;28.40;99.90;;;;;;5013361;28;10737;-60
2022/05/26 01:03:49;;;;;;;;;64.75;52.25;28.40;99.90;;;;;;5014856;28;11638;-60
2022/05/26 01:06:36;;;;;;;;;9.50;9.50;28.30;99.90;;;;;;5015786;28;10876;-59
2022/05/26 01:09:08;;;;;;;;;18.25;18.25;28.10;99.90;;;;;;5014086;28;8869;-59
2022/05/26 01:11:41;;;;;;;;;16.50;16.50;28.00;99.90;;;;;;5023407;28;8900;-60
2022/05/26 01:14:14;;;;;;;;;4.00;4.00;28.10;99.90;;;;;;5033272;28;8912;-60
2022/05/26 01:16:49;;;;;;;;;6.00;6.00;28.10;99.90;;;;;;5016918;28;8904;-61
2022/05/26 01:19:39;;;;;;;;;3.25;3.25;28.00;99.90;;;;;;5015246;28;8992;-59
2022/05/26 01:22:30;;;;;;;;;5.00;5.00;28.00;99.90;;;;;;5011046;28;8869;-61
2022/05/26 01:25:04;;;;;;;;;5.00;5.00;28.00;99.90;;;;;;5013788;28;8873;-60
2022/05/26 01:27:40;;;;;;;;;6.00;4.00;27.90;99.90;;;;;;5015695;28;8864;-60
2022/05/26 01:30:23;;;;;;;;;4.00;4.00;27.90;99.90;;;;;;5008054;28;8838;-60
2022/05/26 01:32:56;;;;;;;;;3.00;3.00;28.00;99.90;;;;;;5017803;28;8885;-60
2022/05/26 01:35:57;;;;;;;;;4.75;4.75;27.90;99.90;;;;;;5010129;28;8895;-61
2022/05/26 01:38:34;;;;;;;;;4.00;4.00;27.90;99.90;;;;;;5007355;28;9620;-61
2022/05/26 01:41:07;;;;;;;;;3.25;3.25;27.80;99.90;;;;;;5012735;28;8865;-60
2022/05/26 01:43:46;;;;;;;;;4.75;4.75;27.80;99.90;;;;;;5017572;28;8913;-61
2022/05/26 01:46:42;;;;;;;;;4.25;4.25;27.90;99.90;;;;;;5014923;28;8866;-61
2022/05/26 01:49:30;;;;;;;;;4.00;3.50;28.00;99.90;;;;;;5018460;28;9555;-61
2022/05/26 01:52:27;;;;;;;;;3.00;3.00;27.90;99.90;;;;;;5016580;28;8857;-61
2022/05/26 01:55:13;;;;;;;;;4.50;3.25;28.00;99.90;;;;;;5004803;28;8876;-61
2022/05/26 01:57:54;;;;;;;;;5.00;5.00;28.00;99.90;;;;;;5015980;28;9016;-60
2022/05/26 02:00:25;;;;;;;;;4.50;4.50;28.00;99.90;;;;;;5014398;28;8819;-61
2022/05/26 02:03:11;;;;;;;;;1.00;1.00;27.80;99.90;;;;;;5016800;28;8853;-60
2022/05/26 02:05:56;;;;;;;;;5.00;5.00;27.80;99.90;;;;;;5017446;28;8900;-60
2022/05/26 02:08:35;;;;;;;;;4.00;4.00;27.90;99.90;;;;;;5009151;28;8821;-61
2022/05/26 02:11:14;;;;;;;;;5.25;5.25;27.90;99.90;;;;;;5016126;28;8877;-61
2022/05/26 02:14:23;;;;;;;;;5.00;5.00;27.80;99.90;;;;;;5013216;28;9197;-61
2022/05/26 02:17:00;;;;;;;;;4.50;4.50;27.70;99.90;;;;;;5009097;28;8873;-60
2022/05/26 02:20:04;;;;;;;;;3.00;3.00;27.60;99.90;;;;;;5026724;28;8844;-61
2022/05/26 02:22:41;;;;;;;;;4.00;3.00;27.60;99.90;;;;;;5016482;28;9576;-61
2022/05/26 02:25:19;;;;;;;;;5.25;3.25;27.50;99.90;;;;;;5017700;28;8857;-60
2022/05/26 02:27:55;;;;;;;;;4.00;4.00;27.40;99.90;;;;;;5017622;28;8842;-60
2022/05/26 02:30:36;;;;;;;;;4.25;4.25;27.40;99.90;;;;;;5007167;28;9024;-60
2022/05/26 02:33:11;;;;;;;;;2.50;2.50;27.40;99.90;;;;;;5017079;28;9540;-59
2022/05/26 02:35:44;;;;;;;;;5.00;3.50;27.30;99.90;;;;;;5014982;28;8899;-60
2022/05/26 02:38:22;;;;;;;;;4.75;4.75;27.40;99.90;;;;;;5015992;28;8837;-61
2022/05/26 02:40:53;;;;;;;;;3.75;3.75;27.30;99.90;;;;;;5015542;28;8913;-61
2022/05/26 02:43:29;;;;;;;;;4.00;4.00;27.40;99.90;;;;;;5013413;28;8865;-60
2022/05/26 02:46:04;;;;;;;;;2.25;2.25;27.40;99.90;;;;;;5014817;28;10020;-60
2022/05/26 02:49:05;;;;;;;;;3.25;3.25;27.40;99.90;;;;;;5017936;28;8865;-61
2022/05/26 02:52:04;;;;;;;;;4.00;4.00;27.50;99.90;;;;;;4997122;28;8902;-60
2022/05/26 02:54:53;;;;;;;;;4.00;4.00;27.50;99.90;;;;;;5015981;28;8995;-59
2022/05/26 02:57:26;;;;;;;;;4.25;3.00;27.40;99.90;;;;;;5019490;28;8877;-60
2022/05/26 03:00:05;;;;;;;;;4.00;2.25;27.40;99.90;;;;;;5010265;28;8943;-60
2022/05/26 03:02:42;;;;;;;;;4.00;4.00;27.30;99.90;;;;;;5014827;28;8911;-61
2022/05/26 03:05:30;;;;;;;;;3.75;3.75;27.20;99.90;;;;;;5017214;28;8876;-62
2022/05/26 03:08:05;;;;;;;;;2.00;2.00;27.10;99.90;;;;;;5009128;28;8853;-62
2022/05/26 03:10:35;;;;;;;;;3.75;3.75;27.00;99.90;;;;;;5006402;28;8988;-62
2022/05/26 03:13:08;;;;;;;;;4.00;4.00;27.00;99.90;;;;;;5012870;28;8854;-61
2022/05/26 03:15:40;;;;;;;;;3.00;3.00;26.80;99.90;;;;;;5007574;28;8857;-60
2022/05/26 03:18:11;;;;;;;;;3.00;3.00;26.70;99.90;;;;;;5012491;28;8853;-61
2022/05/26 03:20:41;;;;;;;;;2.25;2.25;26.70;99.90;;;;;;5016263;28;9580;-61
2022/05/26 03:23:12;;;;;;;;;3.75;3.75;26.50;99.90;;;;;;5015254;28;8893;-61
2022/05/26 03:25:46;;;;;;;;;3.25;3.25;26.50;99.90;;;;;;5016421;28;8861;-61
2022/05/26 03:28:16;;;;;;;;;4.75;4.75;26.50;99.90;;;;;;5014867;28;9002;-61
2022/05/26 03:30:47;;;;;;;;;5.00;3.00;26.40;99.90;;;;;;5014852;28;8873;-61
2022/05/26 03:33:18;;;;;;;;;3.00;3.00;26.40;99.90;;;;;;5014803;28;8857;-60
2022/05/26 03:41:31;;;;;;;;;3.50;3.50;26.00;99.90;;;;;;5008598;28;8944;-61
2022/05/26 03:44:01;;;;;;;;;1.00;1.00;25.80;99.90;;;;;;5010011;28;8877;-63
2022/05/26 03:46:32;;;;;;;;;1.75;1.75;25.40;99.90;;;;;;5015605;28;8849;-61
2022/05/26 03:49:06;;;;;;;;;3.00;3.00;25.30;99.90;;;;;;5014820;28;8888;-60
2022/05/26 03:51:36;;;;;;;;;3.75;3.75;25.30;99.90;;;;;;5012341;28;8854;-60
2022/05/26 03:54:06;;;;;;;;;2.00;2.00;25.20;99.90;;;;;;5016772;28;8853;-60
2022/05/26 03:56:37;;;;;;;;;3.00;3.00;25.00;99.90;;;;;;5018413;28;8887;-60
2022/05/26 03:59:07;;;;;;;;;3.00;3.00;24.70;99.90;;;;;;5011139;28;8873;-60
2022/05/26 04:01:39;;;;;;;;;3.00;3.00;24.50;99.90;;;;;;5014513;28;8842;-60
2022/05/26 04:04:09;;;;;;;;;5.00;3.00;24.60;99.90;;;;;;5012139;28;8883;-59
2022/05/26 04:06:39;;;;;;;;;4.00;4.00;24.60;99.90;;;;;;5016982;28;8869;-60
2022/05/26 04:09:10;;;;;;;;;4.00;4.00;24.60;99.90;;;;;;5013815;28;8995;-60
2022/05/26 04:11:40;;;;;;;;;5.25;3.50;24.50;99.90;;;;;;5013802;28;8993;-60
2022/05/26 04:14:12;;;;;;;;;3.50;3.50;24.40;99.90;;;;;;5003616;28;8902;-62
2022/05/26 04:16:42;;;;;;;;;3.00;3.00;24.50;99.90;;;;;;5008522;28;8889;-60
2022/05/26 04:19:11;;;;;;;;;4.00;4.00;24.30;99.90;;;;;;5015400;28;8829;-61
2022/05/26 04:22:15;;;;;;;;;3.75;3.00;24.20;99.90;;;;;;5013202;28;9469;-60
2022/05/26 04:24:33;;;;;;;;;4.00;3.25;24.10;99.90;;;;;;5010380;28;8873;-60
2022/05/26 04:27:04;;;;;;;;;4.75;4.75;24.00;99.90;;;;;;5010961;28;8837;-60
2022/05/26 04:29:35;;;;;;;;;2.50;2.50;24.00;99.90;;;;;;5013418;28;8857;-62
2022/05/26 04:32:07;;;;;;;;;3.50;3.50;23.80;99.90;;;;;;5015527;28;8841;-64
2022/05/26 04:34:40;;;;;;;;;5.00;3.50;23.90;99.90;;;;;;5008176;28;9562;-63
2022/05/26 04:37:10;;;;;;;;;3.25;3.25;23.90;99.90;;;;;;5009686;28;8813;-62
2022/05/26 04:39:39;;;;;;;;;3.25;3.25;23.90;99.90;;;;;;5013791;28;8964;-62
2022/05/26 04:42:12;;;;;;;;;2.00;2.00;23.90;99.90;;;;;;5015878;28;8841;-63
2022/05/26 04:44:49;;;;;;;;;3.00;3.00;23.80;99.90;;;;;;5011982;28;8976;-63
2022/05/26 04:47:20;;;;;;;;;4.00;4.00;23.70;99.90;;;;;;5014903;28;8826;-63
2022/05/26 04:49:53;;;;;;;;;3.00;3.00;23.50;99.90;;;;;;5013619;28;8845;-61
2022/05/26 04:52:26;;;;;;;;;3.00;3.00;23.50;99.90;;;;;;5015484;28;8888;-63
2022/05/26 04:54:56;;;;;;;;;0.25;0.25;23.40;99.90;;;;;;5014097;28;8849;-63
2022/05/26 04:57:27;;;;;;;;;4.67;4.67;23.30;99.90;;;;;;5016159;28;8888;-63
2022/05/26 05:00:02;;;;;;;;;4.25;4.25;23.20;99.90;;;;;;5011003;28;8937;-62
2022/05/26 05:02:32;;;;;;;;;4.25;4.25;23.30;99.90;;;;;;5021790;28;8880;-60
2022/05/26 05:05:06;;;;;;;;;3.00;3.00;23.20;99.90;;;;;;5019647;28;8891;-63
2022/05/26 05:07:36;;;;;;;;;3.50;3.50;23.10;99.90;;;;;;5014035;28;8908;-63
2022/05/26 05:10:07;;;;;;;;;2.50;2.50;23.10;99.90;;;;;;5016693;28;8916;-62
2022/05/26 05:12:40;;;;;;;;;3.00;3.00;22.90;99.90;;;;;;5019814;28;8846;-62
2022/05/26 05:15:21;;;;;;;;;4.00;4.00;22.90;99.90;;;;;;5010935;28;9083;-63
2022/05/26 05:17:52;;;;;;;;;4.67;3.67;22.80;99.90;;;;;;5022257;28;8968;-62
2022/05/26 05:20:21;;;;;;;;;4.00;4.00;22.70;99.90;;;;;;5017518;28;8941;-62
2022/05/26 05:23:00;;;;;;;;;3.33;3.33;22.60;99.90;;;;;;5013617;28;9183;-62
2022/05/26 05:25:37;;;;;;;;;3.00;3.00;22.60;99.90;;;;;;5013166;28;9018;-62
2022/05/26 05:28:17;;;;;;;;;3.33;3.33;22.60;99.90;;;;;;5017034;28;9010;-62
2022/05/26 05:30:58;;;;;;;;;3.00;3.00;22.60;99.90;;;;;;5011398;28;9040;-62
2022/05/26 05:33:39;;;;;;;;;3.33;3.33;22.50;99.90;;;;;;5017581;28;8873;-62
2022/05/26 05:36:21;;;;;;;;;3.00;3.00;22.40;99.90;;;;;;5016515;28;8969;-62
2022/05/26 05:38:50;;;;;;;;;4.00;2.00;22.40;99.90;;;;;;5016807;28;8829;-63
2022/05/26 05:41:21;;;;;;;;;2.00;2.00;22.30;99.90;;;;;;5014813;28;9005;-62
2022/05/26 05:43:51;;;;;;;;;2.00;2.00;22.30;99.90;;;;;;5011891;28;8939;-63
2022/05/26 05:46:23;;;;;;;;;2.67;2.67;22.30;99.90;;;;;;5010776;28;9099;-63
2022/05/26 05:48:53;;;;;;;;;3.67;3.67;22.20;99.90;;;;;;5016124;28;8941;-62
2022/05/26 05:51:24;;;;;;;;;3.00;3.00;22.10;99.90;;;;;;5014803;28;9109;-62
2022/05/26 05:53:55;;;;;;;;;3.25;3.25;22.10;99.90;;;;;;5018721;28;9094;-63
2022/05/26 05:56:32;;;;;;;;;2.00;2.00;22.10;99.90;;;;;;5017117;28;8841;-62
2022/05/26 05:59:02;;;;;;;;;3.00;3.00;22.00;99.90;;;;;;5014113;28;8964;-61
2022/05/26 06:01:33;;;;;;;;;2.00;2.00;22.00;99.90;;;;;;5012885;28;9229;-62
2022/05/26 06:04:05;;;;;;;;;2.00;2.00;21.90;99.90;;;;;;5009390;28;10017;-62
2022/05/26 06:06:41;;;;;;;;;1.33;1.33;21.80;99.90;;;;;;5010297;28;9252;-63
2022/05/26 06:09:13;;;;;;;;;4.00;4.00;21.70;99.90;;;;;;5004755;28;9096;-63
2022/05/26 06:11:45;;;;;;;;;3.00;3.00;21.60;99.90;;;;;;5011376;28;9085;-62
2022/05/26 06:14:16;;;;;;;;;3.67;3.67;21.60;99.90;;;;;;5007761;28;9270;-61
2022/05/26 06:16:46;;;;;;;;;4.00;4.00;21.50;99.90;;;;;;5006790;28;9367;-62
2022/05/26 06:19:16;;;;;;;;;3.00;3.00;21.40;99.90;;;;;;5018893;28;10278;-63
2022/05/26 06:21:46;;;;;;;;;2.00;2.00;21.40;99.90;;;;;;5018683;28;9388;-62
2022/05/26 06:24:22;;;;;;;;;2.67;2.67;21.40;99.90;;;;;;5016279;28;9440;-62
2022/05/26 06:26:53;;;;;;;;;2.00;2.00;21.30;99.90;;;;;;5017736;28;9464;-62
2022/05/26 06:37:51;;;;;;;;;3.00;3.00;21.20;99.90;;;;;;5014029;28;9549;-63
2022/05/26 06:40:22;;;;;;;;;2.00;2.00;21.10;99.90;;;;;;4996920;28;9403;-63
2022/05/26 06:42:53;;;;;;;;;3.33;3.33;21.10;99.90;;;;;;5018276;28;10276;-62
2022/05/26 06:45:24;;;;;;;;;2.33;2.33;21.00;99.90;;;;;;5009020;28;9557;-63
2022/05/26 06:47:53;;;;;;;;;2.33;2.33;21.00;99.90;;;;;;5015615;28;9499;-63
2022/05/26 06:50:23;;;;;;;;;2.00;2.00;20.90;99.90;;;;;;5019348;28;9543;-62
2022/05/26 06:52:53;;;;;;;;;2.00;2.00;20.80;99.90;;;;;;5016158;28;9321;-63
2022/05/26 06:55:23;;;;;;;;;2.00;2.00;20.70;99.90;;;;;;5003148;28;9521;-62
2022/05/26 06:57:54;;;;;;;;;3.00;3.00;20.70;99.90;;;;;;5013297;28;9580;-62
2022/05/26 07:00:26;;;;;;;;;3.00;3.00;20.70;99.90;;;;;;5017078;28;9513;-62
2022/05/26 07:02:56;;;;;;;;;2.00;2.00;20.60;99.90;;;;;;4992865;28;9485;-63
2022/05/26 07:05:27;;;;;;;;;2.00;2.00;20.50;99.90;;;;;;5019243;28;9849;-63
2022/05/26 07:08:01;;;;;;;;;2.25;2.25;20.40;99.90;;;;;;5011097;28;9430;-66
2022/05/26 07:10:33;;;;;;;;;2.00;2.00;20.40;99.90;;;;;;5016287;28;11053;-62
2022/05/26 07:13:06;;;;;;;;;2.67;2.67;20.40;99.90;;;;;;5017571;28;10265;-63
2022/05/26 07:15:37;;;;;;;;;2.00;2.00;20.40;99.90;;;;;;5010089;28;9435;-63
2022/05/26 07:18:08;;;;;;;;;2.00;2.00;20.40;99.90;;;;;;5007780;28;9563;-63
2022/05/26 07:20:41;;;;;;;;;4.25;3.25;20.30;99.90;;;;;;5018510;28;9638;-63
2022/05/26 07:23:11;;;;;;;;;2.00;2.00;20.20;99.90;;;;;;5017009;28;9752;-63
2022/05/26 07:25:43;;;;;;;;;3.00;3.00;20.20;99.90;;;;;;5014404;28;9718;-63
2022/05/26 07:28:13;;;;;;;;;3.00;3.00;20.20;99.90;;;;;;5017805;28;9971;-62
2022/05/26 07:30:43;;;;;;;;;3.00;3.00;20.10;99.90;;;;;;5012682;28;9888;-63
2022/05/26 07:33:14;;;;;;;;;4.25;4.25;20.10;99.90;;;;;;5018295;28;9869;-63
2022/05/26 07:35:43;;;;;;;;;4.75;4.75;20.10;99.90;;;;;;5015767;28;10039;-62
2022/05/26 07:41:18;;;;;;;;;7.50;7.50;20.00;99.90;;;;;;5014649;28;10085;-62
2022/05/26 07:43:57;;;;;;;;;12.25;10.75;19.90;99.90;;;;;;5014534;28;10190;-62
2022/05/26 07:46:27;;;;;;;;;9.50;9.00;19.80;99.90;;;;;;5016530;28;10431;-63
2022/05/26 07:48:59;;;;;;;;;7.75;7.75;19.80;99.90;;;;;;5015603;28;10473;-63
2022/05/26 07:51:31;;;;;;;;;7.00;7.00;19.80;99.90;;;;;;4999117;28;10348;-63
2022/05/26 07:54:02;;;;;;;;;2.75;2.75;19.80;99.90;;;;;;4994817;28;11316;-62
2022/05/26 07:56:36;;;;;;;;;7.00;5.25;19.80;99.90;;;;;;5009189;28;10339;-62
2022/05/26 07:59:08;;;;;;;;;4.00;4.00;19.70;99.90;;;;;;5013942;28;10171;-62
2022/05/26 08:01:38;;;;;;;;;3.00;3.00;19.60;99.90;;;;;;5012800;28;10337;-62
2022/05/26 08:04:08;;;;;;;;;1.50;1.50;19.50;99.90;;;;;;5016302;28;10118;-61
2022/05/26 08:06:39;;;;;;;;;2.50;2.50;19.40;99.90;;;;;;4996957;28;10526;-63
2022/05/26 08:09:24;;;;;;;;;2.00;2.00;19.40;99.90;;;;;;4993679;28;10043;-63
2022/05/26 08:11:55;;;;;;;;;1.00;1.00;19.40;99.90;;;;;;5013298;28;10228;-62
2022/05/26 08:14:25;;;;;;;;;3.25;3.25;19.40;99.90;;;;;;5014115;28;10210;-62
2022/05/26 08:16:56;;;;;;;;;2.00;2.00;19.40;99.90;;;;;;5012037;28;10154;-61
2022/05/26 08:19:27;;;;;;;;;1.00;1.00;19.40;99.90;;;;;;5018368;28;10170;-62
2022/05/26 08:22:01;;;;;;;;;1.00;1.00;19.40;99.90;;;;;;5011064;28;10641;-62
2022/05/26 08:24:31;;;;;;;;;1.00;1.00;19.30;99.90;;;;;;5014576;28;11095;-62
2022/05/26 08:27:03;;;;;;;;;2.00;2.00;19.30;99.90;;;;;;5014385;28;10019;-62
2022/05/26 08:29:34;;;;;;;;;1.50;1.50;19.20;99.90;;;;;;5013463;28;9988;-61
2022/05/26 08:32:05;;;;;;;;;1.00;1.00;19.20;99.90;;;;;;5013202;28;10111;-62
2022/05/26 08:34:35;;;;;;;;;2.00;2.00;19.20;99.90;;;;;;5014737;28;10009;-62
2022/05/26 08:37:19;;;;;;;;;2.75;2.75;19.10;99.90;;;;;;5013263;28;10091;-63
2022/05/26 08:39:49;;;;;;;;;2.00;2.00;19.10;99.90;;;;;;5018336;28;10322;-62
2022/05/26 08:42:35;;;;;;;;;2.00;2.00;19.10;99.90;;;;;;5018160;28;10295;-63
2022/05/26 08:45:12;;;;;;;;;1.25;1.25;19.10;99.90;;;;;;5015933;28;10180;-63
2022/05/26 08:47:46;;;;;;;;;0.00;0.00;19.00;99.90;;;;;;5011270;28;10060;-62
2022/05/26 08:50:41;;;;;;;;;2.00;2.00;19.00;99.90;;;;;;5016813;28;10021;-63
2022/05/26 08:53:26;;;;;;;;;3.00;1.25;18.90;99.90;;;;;;5031331;28;10173;-64
2022/05/26 08:55:57;;;;;;;;;2.00;2.00;18.90;99.90;;;;;;5013265;28;10339;-62
2022/05/26 08:58:33;;;;;;;;;2.00;2.00;18.90;99.90;;;;;;5013924;28;10252;-62
2022/05/26 09:01:06;;;;;;;;;2.00;2.00;18.80;99.90;;;;;;5015849;28;10484;-62
2022/05/26 09:03:36;;;;;;;;;1.00;1.00;18.80;99.90;;;;;;5017162;28;10327;-61
2022/05/26 09:06:21;;;;;;;;;1.00;1.00;18.80;99.90;;;;;;5019478;28;10239;-61
2022/05/26 09:14:44;;;;;;;;;1.00;1.00;18.70;99.90;;;;;;5004004;28;10246;-61
2022/05/26 09:17:16;;;;;;;;;1.00;1.00;18.60;99.90;;;;;;5013279;28;10174;-62
2022/05/26 09:19:50;;;;;;;;;1.00;1.00;18.60;99.90;;;;;;5018067;28;10239;-61
2022/05/26 09:22:28;;;;;;;;;2.25;2.25;18.60;99.90;;;;;;5016372;28;10058;-63
2022/05/26 09:25:01;;;;;;;;;0.00;0.00;18.60;99.90;;;;;;5017362;28;10175;-64
2022/05/26 09:27:37;;;;;;;;;1.00;1.00;18.60;99.90;;;;;;5019096;28;10080;-63
2022/05/26 09:30:25;;;;;;;;;1.00;1.00;18.50;99.90;;;;;;5017554;28;10254;-62
2022/05/26 09:32:56;;;;;;;;;1.25;1.25;18.50;99.90;;;;;;5019475;28;10225;-63
2022/05/26 09:35:29;;;;;;;;;1.50;1.50;18.40;99.90;;;;;;5016648;28;10444;-63
2022/05/26 09:38:06;;;;;;;;;2.00;2.00;18.40;99.90;;;;;;5009997;28;11057;-63
2022/05/26 09:40:41;;;;;;;;;1.50;1.50;18.40;99.90;;;;;;5017250;28;10398;-62
2022/05/26 09:43:27;;;;;;;;;0.75;0.75;18.40;99.90;;;;;;5017438;28;10102;-63
2022/05/26 09:46:01;;;;;;;;;0.50;0.50;18.40;99.90;;;;;;5014909;28;10748;-63
2022/05/26 09:48:37;;;;;;;;;1.25;1.25;18.30;99.90;;;;;;5018455;28;10106;-63
2022/05/26 09:51:25;;;;;;;;;1.50;1.50;18.30;99.90;;;;;;5008452;28;10301;-63
2022/05/26 09:53:59;;;;;;;;;1.50;1.50;18.30;99.90;;;;;;5017898;28;10149;-63
2022/05/26 09:56:47;;;;;;;;;1.50;1.50;18.20;99.90;;;;;;5014902;28;10013;-63
2022/05/26 09:59:38;;;;;;;;;1.50;1.50;18.20;99.90;;;;;;5013147;28;10301;-63
2022/05/26 10:02:36;;;;;;;;;2.00;2.00;18.20;99.90;;;;;;5015902;28;10001;-62
2022/05/26 10:05:21;;;;;;;;;1.50;1.50;18.20;99.90;;;;;;5013970;28;10314;-63
2022/05/26 10:08:06;;;;;;;;;3.50;2.00;18.20;99.90;;;;;;5016921;28;10251;-63
2022/05/26 10:11:09;;;;;;;;;2.00;2.00;18.10;99.90;;;;;;4997284;28;10349;-63
2022/05/26 10:14:06;;;;;;;;;2.00;2.00;18.10;99.90;;;;;;5012080;28;10343;-63
2022/05/26 10:16:59;;;;;;;;;2.00;2.00;18.00;99.90;;;;;;5014672;28;10083;-63
2022/05/26 10:20:13;;;;;;;;;2.00;2.00;18.00;99.90;;;;;;5001949;28;10959;-62
2022/05/26 10:23:08;;;;;;;;;3.00;3.00;18.00;99.90;;;;;;5013121;28;10328;-62
2022/05/26 10:25:53;;;;;;;;;1.75;1.75;18.00;99.90;;;;;;5013418;28;10299;-62
2022/05/26 10:29:00;;;;;;;;;2.25;2.25;17.90;99.90;;;;;;5014267;28;10364;-61
2022/05/26 10:31:56;;;;;;;;;2.75;2.75;17.90;99.90;;;;;;5013107;28;10431;-62
2022/05/26 10:35:05;;;;;;;;;3.00;3.00;17.90;99.90;;;;;;5012119;28;10385;-63
2022/05/26 10:38:08;;;;;;;;;3.00;1.75;17.90;99.90;;;;;;5015257;28;10373;-63
2022/05/26 10:40:56;;;;;;;;;2.75;2.75;17.90;99.90;;;;;;5013146;28;10322;-63
2022/05/26 10:43:48;;;;;;;;;1.25;1.25;17.80;99.90;;;;;;5020505;28;11114;-62
2022/05/26 10:46:20;;;;;;;;;3.25;3.25;17.80;99.90;;;;;;5013059;28;10549;-62
2022/05/26 10:49:09;;;;;;;;;2.50;2.50;17.80;99.90;;;;;;5018217;28;10486;-63
2022/05/26 10:51:53;;;;;;;;;2.50;2.50;17.80;99.90;;;;;;5015460;28;10366;-63
2022/05/26 10:54:27;;;;;;;;;1.50;1.50;17.80;99.90;;;;;;5017003;28;10585;-62
2022/05/26 10:57:16;;;;;;;;;2.00;2.00;17.80;99.90;;;;;;5011634;28;10478;-62
2022/05/26 11:00:07;;;;;;;;;1.00;1.00;17.70;99.90;;;;;;5011346;28;10851;-63
2022/05/26 11:03:08;;;;;;;;;1.50;1.50;17.70;99.90;;;;;;5012358;28;10616;-62
2022/05/26 11:05:55;;;;;;;;;1.00;1.00;17.80;99.90;;;;;;5014676;28;10728;-62
2022/05/26 11:08:35;;;;;;;;;2.00;2.00;17.80;99.90;;;;;;5010752;28;10617;-62
2022/05/26 11:11:31;;;;;;;;;2.25;2.25;17.70;99.90;;;;;;5017170;28;10750;-62
2022/05/26 11:17:46;;;;;;;;;1.50;1.50;17.60;99.90;;;;;;5016350;28;10766;-62
2022/05/26 11:20:26;;;;;;;;;2.00;2.00;17.60;99.90;;;;;;5028663;28;11497;-63
2022/05/26 11:23:06;;;;;;;;;4.00;4.00;17.50;99.90;;;;;;5016771;28;10846;-63
2022/05/26 11:25:44;;;;;;;;;5.75;2.75;17.50;99.90;;;;;;5015083;28;10910;-63
2022/05/26 11:28:30;;;;;;;;;2.25;2.25;17.50;99.90;;;;;;5013731;28;10864;-62
2022/05/26 11:37:20;;;;;;;;;5.00;3.50;17.40;99.90;;;;;;5006561;28;11089;-63
2022/05/26 11:39:59;;;;;;;;;5.50;5.50;17.40;99.90;;;;;;5002172;28;10956;-62
2022/05/26 11:42:37;;;;;;;;;3.75;3.75;17.40;99.90;;;;;;5013749;28;10997;-62
2022/05/26 11:45:17;;;;;;;;;3.25;3.25;17.40;99.90;;;;;;4996779;28;10900;-62
2022/05/26 11:48:00;;;;;;;;;4.25;4.25;17.40;99.90;;;;;;5012019;28;10826;-63
2022/05/26 11:50:50;;;;;;;;;4.00;4.00;17.40;99.90;;;;;;5015726;28;10931;-63
2022/05/26 11:53:34;;;;;;;;;5.25;5.25;17.30;99.90;;;;;;5018336;28;11015;-62
2022/05/26 11:56:22;;;;;;;;;4.25;4.25;17.30;99.90;;;;;;5017204;28;10928;-62
2022/05/26 11:59:31;;;;;;;;;4.50;4.50;17.30;99.90;;;;;;5012817;28;11090;-62
2022/05/26 12:02:08;;;;;;;;;6.75;6.75;17.30;99.90;;;;;;5013583;28;11119;-63
2022/05/26 12:04:42;;;;;;;;;6.00;6.00;17.30;99.90;;;;;;5015945;28;10940;-62
2022/05/26 12:07:17;;;;;;;;;6.75;6.75;17.30;99.90;;;;;;4996828;28;11053;-61
2022/05/26 12:09:50;;;;;;;;;6.75;6.75;17.20;99.90;;;;;;5011369;28;11716;-62
2022/05/26 12:12:24;;;;;;;;;6.00;6.00;17.20;99.90;;;;;;5013238;28;11205;-62
2022/05/26 12:15:06;;;;;;;;;6.25;5.75;17.20;99.90;;;;;;5013173;28;12122;-62
2022/05/26 12:17:55;;;;;;;;;6.75;6.75;17.20;99.90;;;;;;5017747;28;12724;-62
2022/05/26 12:20:33;;;;;;;;;7.50;7.50;17.20;99.90;;;;;;5009655;28;11239;-63
2022/05/26 12:23:06;;;;;;;;;7.00;7.00;17.20;99.90;;;;;;5017397;28;11504;-62
2022/05/26 12:25:40;;;;;;;;;8.50;8.50;17.20;99.90;;;;;;5015384;28;12774;-63
2022/05/26 12:28:28;;;;;;;;;8.25;8.25;17.20;99.90;;;;;;5019573;28;11144;-62
2022/05/26 12:31:00;;;;;;;;;10.50;10.50;17.10;99.90;;;;;;5019045;28;11187;-62
2022/05/26 12:34:06;;;;;;;;;10.75;10.75;17.10;99.90;;;;;;5012962;28;11495;-62
2022/05/26 12:36:48;;;;;;;;;13.75;13.75;17.10;99.90;;;;;;5017380;28;12218;-62
2022/05/26 12:39:46;;;;;;;;;14.25;14.25;17.10;99.90;;;;;;5004122;28;11533;-64
2022/05/26 12:42:44;;;;;;;;;13.75;13.75;17.10;99.90;;;;;;5014502;28;11455;-62
2022/05/26 12:45:48;;;;;;;;;15.00;15.00;17.10;99.90;;;;;;5014957;28;11219;-63
2022/05/26 12:49:04;;;;;;;;;15.00;15.00;17.00;99.90;;;;;;5017704;28;11811;-62
2022/05/26 12:51:42;;;;;;;;;15.50;15.50;17.00;99.90;;;;;;5014668;28;11550;-62
2022/05/26 12:54:19;;;;;;;;;16.25;16.25;17.00;99.90;;;;;;5014443;28;11509;-62
2022/05/26 12:57:01;;;;;;;;;15.75;15.75;17.00;99.90;;;;;;5019344;28;11548;-63
2022/05/26 12:59:31;;;;;;;;;15.00;15.00;16.90;99.90;;;;;;5011599;28;11339;-63
2022/05/26 13:02:02;;;;;;;;;16.50;16.50;16.90;99.90;;;;;;4999988;28;11545;-62
2022/05/26 13:04:37;;;;;;;;;14.75;14.75;16.90;99.90;;;;;;5015492;28;12543;-61
2022/05/26 13:07:09;;;;;;;;;13.50;13.50;16.90;99.90;;;;;;5019317;28;11646;-63
2022/05/26 13:09:49;;;;;;;;;16.00;16.00;16.80;99.90;;;;;;5015468;28;11519;-63
2022/05/26 13:12:25;;;;;;;;;12.75;12.75;16.90;99.90;;;;;;5013811;28;12226;-63
2022/05/26 13:15:01;;;;;;;;;11.25;11.25;16.80;99.90;;;;;;4996766;28;11542;-63
2022/05/26 13:17:31;;;;;;;;;10.00;10.00;16.80;99.90;;;;;;5015907;28;11564;-63
2022/05/26 13:20:18;;;;;;;;;9.50;8.00;16.80;99.90;;;;;;5014292;28;11517;-62
2022/05/26 13:23:10;;;;;;;;;4.00;4.00;16.80;99.90;;;;;;5016947;28;11560;-61
2022/05/26 13:25:40;;;;;;;;;3.50;3.50;16.80;99.90;;;;;;5015527;28;11227;-63
2022/05/26 13:28:12;;;;;;;;;4.00;4.00;16.80;99.90;;;;;;5013848;28;10745;-62
2022/05/26 13:33:48;;;;;;;;;4.75;4.75;16.70;99.90;;;;;;4937385;28;2395318;-63
2022/05/26 13:36:30;;;;;;;;;3.00;3.00;16.70;99.90;;;;;;5015511;28;8817;-62
2022/05/26 13:39:11;;;;;;;;;3.00;3.00;16.80;99.90;;;;;;5014587;28;10754;-63
2022/05/26 13:41:47;;;;;;;;;3.00;3.00;16.60;99.90;;;;;;5008501;28;10576;-63
2022/05/26 13:44:24;;;;;;;;;5.00;5.00;16.70;99.90;;;;;;5009628;28;10586;-63
2022/05/26 13:46:54;;;;;;;;;3.00;3.00;16.70;99.90;;;;;;5033048;28;10984;-62
2022/05/26 13:49:32;;;;;;;;;3.50;3.50;16.70;99.90;;;;;;5015776;28;10924;-63
2022/05/26 13:52:16;;;;;;;;;3.00;3.00;16.70;99.90;;;;;;5015762;28;10954;-63
2022/05/26 13:54:54;;;;;;;;;3.50;3.50;16.70;99.90;;;;;;5018366;28;11016;-62
2022/05/26 13:57:32;;;;;;;;;4.75;4.75;16.70;99.90;;;;;;5017543;28;11224;-62
2022/05/26 14:00:08;;;;;;;;;6.75;6.75;16.70;99.90;;;;;;5029105;28;11304;-62
2022/05/26 14:02:38;;;;;;;;;9.00;8.75;16.70;99.90;;;;;;5015903;28;11418;-63
2022/05/26 14:05:15;;;;;;;;;10.75;10.75;16.80;99.90;;;;;;5015355;28;11521;-63
2022/05/26 14:07:48;;;;;;;;;11.75;11.75;16.80;99.90;;;;;;5015863;28;11342;-63
2022/05/26 14:10:28;;;;;;;;;13.25;13.25;16.70;99.90;;;;;;5016785;28;11184;-63
2022/05/26 14:13:11;;;;;;;;;11.75;11.75;16.70;99.90;;;;;;5010940;28;11224;-62
2022/05/26 14:15:41;;;;;;;;;12.25;12.25;16.70;99.90;;;;;;5014623;28;11508;-63
2022/05/26 14:18:34;;;;;;;;;14.50;12.50;16.70;99.90;;;;;;5014602;28;11171;-63
2022/05/26 14:21:25;;;;;;;;;14.25;14.25;16.70;99.90;;;;;;5018553;28;11218;-63